createdAt,value
2017-08-13T00:00:17.609Z,53.1
2017-08-13T00:03:20.228Z,53.6
2017-08-13T00:04:22.356Z,53.4
2017-08-13T00:05:24.488Z,53.3
2017-08-13T00:06:25.955Z,53.2
2017-08-13T00:07:28.095Z,53.4
2017-08-13T00:08:30.223Z,53.3
2017-08-13T00:09:31.686Z,53.8
2017-08-13T00:10:32.797Z,53.3
2017-08-13T00:11:34.925Z,53.3
2017-08-13T00:12:37.052Z,53.6
2017-08-13T00:13:39.180Z,53.2
2017-08-13T00:14:41.311Z,53.2
2017-08-13T00:15:42.776Z,53.9
2017-08-13T00:16:44.242Z,53.9
2017-08-13T00:17:46.035Z,53.2
2017-08-13T00:18:48.163Z,53.4
2017-08-13T00:19:50.293Z,53.7
2017-08-13T00:20:52.089Z,53.3
2017-08-13T00:21:53.887Z,53.3
2017-08-13T00:22:55.720Z,53.2
2017-08-13T00:23:57.842Z,53.4
2017-08-13T00:24:59.638Z,53.3
2017-08-13T00:26:01.774Z,53.1
2017-08-13T00:27:03.896Z,53.8
2017-08-13T00:28:06.027Z,53.9
2017-08-13T00:29:08.156Z,53.2
2017-08-13T00:30:10.288Z,53.3
2017-08-13T00:31:12.411Z,53.2
2017-08-13T00:32:14.186Z,53.2
2017-08-13T00:33:15.658Z,53.1
2017-08-13T00:34:17.786Z,53.2
2017-08-13T00:35:19.919Z,53.7
2017-08-13T00:36:22.048Z,54.1
2017-08-13T00:37:24.178Z,53.2
2017-08-13T00:38:26.308Z,54
2017-08-13T00:39:28.436Z,53.1
2017-08-13T00:40:30.211Z,53.6
2017-08-13T00:41:32.008Z,53.5
2017-08-13T00:42:34.137Z,53.2
2017-08-13T00:43:36.267Z,53.7
2017-08-13T00:44:38.046Z,54
2017-08-13T00:45:39.845Z,54.2
2017-08-13T00:46:41.642Z,53.4
2017-08-13T00:47:43.771Z,53.5
2017-08-13T00:48:45.547Z,54
2017-08-13T00:49:46.989Z,54.1
2017-08-13T00:50:49.130Z,53.5
2017-08-13T00:51:50.911Z,53.4
2017-08-13T00:52:52.686Z,53.5
2017-08-13T00:53:54.815Z,53.7
2017-08-13T00:54:56.945Z,53.6
2017-08-13T00:55:58.410Z,53.6
2017-08-13T00:57:00.207Z,54.2
2017-08-13T00:58:02.009Z,53.4
2017-08-13T00:59:03.804Z,53.9
2017-08-13T01:00:05.248Z,54.1
2017-08-13T01:01:06.690Z,53.4
2017-08-13T01:02:08.491Z,53.4
2017-08-13T01:03:10.627Z,54.1
2017-08-13T01:04:12.754Z,53.5
2017-08-13T01:05:14.549Z,53.5
2017-08-13T01:06:16.677Z,54.2
2017-08-13T01:07:17.815Z,53.4
2017-08-13T01:08:19.600Z,53.3
2017-08-13T01:09:21.753Z,53.4
2017-08-13T01:10:23.881Z,53.8
2017-08-13T01:11:26.010Z,53.6
2017-08-13T01:12:28.137Z,53.4
2017-08-13T01:13:30.268Z,53.5
2017-08-13T01:14:32.042Z,53.9
2017-08-13T01:15:33.839Z,53.7
2017-08-13T01:16:35.281Z,53.4
2017-08-13T01:17:37.057Z,53.6
2017-08-13T01:18:38.521Z,54.1
2017-08-13T01:19:40.650Z,53.8
2017-08-13T01:20:42.778Z,53.8
2017-08-13T01:21:44.575Z,54
2017-08-13T01:22:46.014Z,53.5
2017-08-13T01:23:47.453Z,53.4
2017-08-13T01:24:48.893Z,53.9
2017-08-13T01:25:50.687Z,53.9
2017-08-13T01:26:52.817Z,53.4
2017-08-13T01:27:54.942Z,53.7
2017-08-13T01:28:56.721Z,53.8
2017-08-13T01:29:58.849Z,53.5
2017-08-13T01:31:00.646Z,53.5
2017-08-13T01:32:02.778Z,53.4
2017-08-13T01:33:04.905Z,53.8
2017-08-13T01:34:07.038Z,53.6
2017-08-13T01:35:08.835Z,53.8
2017-08-13T01:36:10.963Z,53.3
2017-08-13T01:37:13.093Z,53.9
2017-08-13T01:38:14.888Z,53.8
2017-08-13T01:39:17.014Z,53.7
2017-08-13T01:40:18.811Z,54.3
2017-08-13T01:41:20.607Z,53.7
2017-08-13T01:42:22.738Z,53.5
2017-08-13T01:43:24.533Z,54.1
2017-08-13T01:44:26.331Z,53.4
2017-08-13T01:45:28.457Z,53.8
2017-08-13T01:46:30.256Z,53.8
2017-08-13T01:47:32.383Z,53.8
2017-08-13T01:48:34.179Z,53.5
2017-08-13T01:49:36.308Z,53.7
2017-08-13T01:50:38.103Z,54.1
2017-08-13T01:51:39.548Z,53.5
2017-08-13T01:52:40.987Z,53.8
2017-08-13T01:53:43.115Z,53.7
2017-08-13T01:54:45.244Z,53.8
2017-08-13T01:55:47.036Z,53.4
2017-08-13T01:56:48.843Z,53.8
2017-08-13T01:57:50.966Z,54
2017-08-13T01:58:53.099Z,54.1
2017-08-13T01:59:54.888Z,54.1
2017-08-13T02:00:56.686Z,54.4
2017-08-13T02:01:58.817Z,53.5
2017-08-13T02:03:00.613Z,53.8
2017-08-13T02:04:02.742Z,54.5
2017-08-13T02:05:04.895Z,53.8
2017-08-13T02:06:07.025Z,54.1
2017-08-13T02:07:08.802Z,53.7
2017-08-13T02:08:10.601Z,53.6
2017-08-13T02:09:12.397Z,54.1
2017-08-13T02:10:14.194Z,53.8
2017-08-13T02:11:15.997Z,53.8
2017-08-13T02:12:17.789Z,53.3
2017-08-13T02:13:19.564Z,54.2
2017-08-13T02:14:21.690Z,53.8
2017-08-13T02:15:23.485Z,53.7
2017-08-13T02:16:25.282Z,53.8
2017-08-13T02:17:27.412Z,53.5
2017-08-13T02:18:29.541Z,54
2017-08-13T02:19:30.989Z,53.9
2017-08-13T02:20:33.113Z,54.1
2017-08-13T02:21:34.908Z,53.5
2017-08-13T02:22:37.038Z,54.1
2017-08-13T02:23:39.168Z,54.2
2017-08-13T02:24:40.964Z,53.7
2017-08-13T02:25:43.094Z,54.1
2017-08-13T02:26:45.231Z,53.8
2017-08-13T02:27:47.358Z,54.1
2017-08-13T02:28:49.488Z,54.1
2017-08-13T02:29:51.615Z,54.1
2017-08-13T02:30:53.413Z,53.9
2017-08-13T02:31:55.209Z,53.8
2017-08-13T02:32:57.005Z,54.2
2017-08-13T02:33:59.134Z,53.9
2017-08-13T02:35:01.262Z,54.1
2017-08-13T02:36:03.392Z,54.1
2017-08-13T02:37:05.518Z,54.1
2017-08-13T02:38:07.313Z,54.1
2017-08-13T02:39:08.777Z,54.4
2017-08-13T02:40:10.906Z,54.5
2017-08-13T02:41:12.374Z,54.1
2017-08-13T02:42:13.817Z,54.2
2017-08-13T02:43:15.947Z,54
2017-08-13T02:44:18.078Z,54.2
2017-08-13T02:45:20.214Z,53.8
2017-08-13T02:46:22.336Z,54
2017-08-13T02:47:24.127Z,54.1
2017-08-13T02:48:26.254Z,54
2017-08-13T02:49:28.382Z,54
2017-08-13T02:50:30.512Z,54.3
2017-08-13T02:51:32.646Z,54.1
2017-08-13T02:52:34.775Z,54.2
2017-08-13T02:53:36.909Z,54
2017-08-13T02:54:38.683Z,54.2
2017-08-13T02:55:40.479Z,54
2017-08-13T02:56:42.256Z,53.9
2017-08-13T02:57:43.725Z,54.3
2017-08-13T02:58:45.177Z,54.6
2017-08-13T02:59:46.969Z,54
2017-08-13T03:00:49.095Z,54
2017-08-13T03:01:51.265Z,54.1
2017-08-13T03:02:53.065Z,54.3
2017-08-13T03:03:54.842Z,54.1
2017-08-13T03:04:56.614Z,54
2017-08-13T03:05:58.741Z,53.7
2017-08-13T03:07:00.894Z,54
2017-08-13T03:08:02.691Z,54
2017-08-13T03:09:04.817Z,54
2017-08-13T03:10:06.947Z,54.1
2017-08-13T03:11:08.743Z,53.8
2017-08-13T03:12:10.877Z,54.3
2017-08-13T03:13:12.652Z,53.8
2017-08-13T03:14:14.450Z,53.9
2017-08-13T03:15:16.578Z,54
2017-08-13T03:16:18.375Z,54
2017-08-13T03:17:20.170Z,54
2017-08-13T03:18:21.947Z,54.2
2017-08-13T03:19:24.075Z,54.5
2017-08-13T03:20:26.203Z,54.4
2017-08-13T03:21:28.334Z,53.9
2017-08-13T03:22:30.148Z,54.4
2017-08-13T03:23:32.259Z,54
2017-08-13T03:24:34.389Z,53.8
2017-08-13T03:25:36.518Z,54.3
2017-08-13T03:26:37.960Z,54
2017-08-13T03:27:39.735Z,53.7
2017-08-13T03:28:41.184Z,54.3
2017-08-13T03:29:42.974Z,53.9
2017-08-13T03:30:45.103Z,54
2017-08-13T03:31:46.572Z,54.3
2017-08-13T03:32:48.369Z,54
2017-08-13T03:33:49.498Z,53.8
2017-08-13T03:34:51.275Z,54.4
2017-08-13T03:35:52.383Z,54
2017-08-13T03:36:53.845Z,54.3
2017-08-13T03:37:55.973Z,54.2
2017-08-13T03:38:58.101Z,54
2017-08-13T03:40:00.227Z,54
2017-08-13T03:41:02.008Z,53.8
2017-08-13T03:42:03.804Z,54.3
2017-08-13T03:43:05.578Z,54.3
2017-08-13T03:44:07.372Z,54.2
2017-08-13T03:45:09.501Z,53.9
2017-08-13T03:46:11.293Z,53.9
2017-08-13T03:47:13.144Z,53.9
2017-08-13T03:48:14.584Z,54.3
2017-08-13T03:49:16.359Z,54.2
2017-08-13T03:50:18.173Z,54
2017-08-13T03:51:19.966Z,53.9
2017-08-13T03:52:21.765Z,53.8
2017-08-13T03:53:23.897Z,53.7
2017-08-13T03:54:25.670Z,53.9
2017-08-13T03:55:27.110Z,53.7
2017-08-13T03:56:29.239Z,54.2
2017-08-13T03:57:31.033Z,53.8
2017-08-13T03:58:32.828Z,54
2017-08-13T03:59:34.964Z,54
2017-08-13T04:00:36.768Z,54
2017-08-13T04:01:37.884Z,54.3
2017-08-13T04:02:39.015Z,54
2017-08-13T04:03:40.792Z,54
2017-08-13T04:04:42.590Z,54.2
2017-08-13T04:05:44.715Z,54
2017-08-13T04:06:46.513Z,54
2017-08-13T04:07:47.989Z,54.3
2017-08-13T04:08:49.429Z,53.8
2017-08-13T04:09:51.553Z,53.9
2017-08-13T04:10:53.354Z,54.2
2017-08-13T04:11:55.152Z,53.9
2017-08-13T04:12:56.946Z,54
2017-08-13T04:13:58.084Z,54.2
2017-08-13T04:15:00.211Z,54
2017-08-13T04:16:02.005Z,54
2017-08-13T04:17:03.117Z,54
2017-08-13T04:18:05.248Z,54.2
2017-08-13T04:19:07.375Z,54
2017-08-13T04:20:09.507Z,54.1
2017-08-13T04:21:11.302Z,54
2017-08-13T04:22:13.432Z,54.2
2017-08-13T04:23:15.562Z,54.1
2017-08-13T04:24:16.676Z,54
2017-08-13T04:25:18.804Z,54
2017-08-13T04:26:20.935Z,54
2017-08-13T04:27:22.733Z,54.1
2017-08-13T04:28:24.884Z,54
2017-08-13T04:29:26.318Z,54
2017-08-13T04:30:28.091Z,54.2
2017-08-13T04:31:29.872Z,54.2
2017-08-13T04:32:32.000Z,54
2017-08-13T04:33:33.789Z,54.1
2017-08-13T04:34:35.565Z,54.2
2017-08-13T04:35:37.361Z,54.2
2017-08-13T04:36:39.160Z,54
2017-08-13T04:37:41.290Z,54
2017-08-13T04:38:43.084Z,54.2
2017-08-13T04:39:44.882Z,54
2017-08-13T04:40:46.328Z,54
2017-08-13T04:41:48.460Z,54.2
2017-08-13T04:42:50.590Z,54.3
2017-08-13T04:43:52.393Z,54.2
2017-08-13T04:44:54.528Z,54.2
2017-08-13T04:45:56.322Z,54.3
2017-08-13T04:46:58.122Z,54
2017-08-13T04:47:59.562Z,54.2
2017-08-13T04:49:01.358Z,54
2017-08-13T04:50:03.487Z,54.2
2017-08-13T04:51:05.619Z,54.1
2017-08-13T04:52:07.425Z,54.2
2017-08-13T04:53:09.549Z,54.1
2017-08-13T04:54:11.346Z,54.3
2017-08-13T04:55:13.474Z,54.2
2017-08-13T04:56:15.270Z,53.9
2017-08-13T04:57:17.070Z,54.1
2017-08-13T04:58:18.874Z,53.9
2017-08-13T04:59:20.340Z,54
2017-08-13T05:00:22.134Z,54.1
2017-08-13T05:01:24.264Z,54
2017-08-13T05:02:25.732Z,54.2
2017-08-13T05:03:27.534Z,54
2017-08-13T05:04:29.664Z,54.2
2017-08-13T05:05:31.795Z,54.2
2017-08-13T05:06:33.593Z,54.2
2017-08-13T05:07:35.722Z,54.1
2017-08-13T05:08:37.165Z,53.9
2017-08-13T05:09:38.964Z,54
2017-08-13T05:10:40.757Z,54
2017-08-13T05:11:42.559Z,53.7
2017-08-13T05:12:44.691Z,53.8
2017-08-13T05:13:46.477Z,53.7
2017-08-13T05:14:48.607Z,54.4
2017-08-13T05:15:50.384Z,53.4
2017-08-13T05:16:52.183Z,53.8
2017-08-13T05:17:53.633Z,53.8
2017-08-13T05:18:55.428Z,53.8
2017-08-13T05:19:57.202Z,53.4
2017-08-13T05:20:58.318Z,53.4
2017-08-13T05:21:59.761Z,53.1
2017-08-13T05:23:01.535Z,53.6
2017-08-13T05:24:03.353Z,53.1
2017-08-13T05:25:04.803Z,53.3
2017-08-13T05:26:06.931Z,53.3
2017-08-13T05:27:08.727Z,53.7
2017-08-13T05:28:10.504Z,53.3
2017-08-13T05:29:12.635Z,53.7
2017-08-13T05:30:14.764Z,53.5
2017-08-13T05:31:16.565Z,53.3
2017-08-13T05:32:18.695Z,54.1
2017-08-13T05:33:20.474Z,54
2017-08-13T05:34:22.271Z,53.8
2017-08-13T05:35:23.736Z,54.1
2017-08-13T05:36:25.516Z,53.9
2017-08-13T05:37:27.311Z,54.2
2017-08-13T05:38:29.447Z,53.9
2017-08-13T05:39:31.576Z,53.3
2017-08-13T05:40:33.020Z,53.5
2017-08-13T05:41:34.816Z,53.6
2017-08-13T05:42:36.601Z,53.8
2017-08-13T05:43:38.731Z,54
2017-08-13T05:44:40.868Z,53.6
2017-08-13T05:45:43.005Z,53.5
2017-08-13T05:46:45.131Z,53.7
2017-08-13T05:47:47.268Z,53.7
2017-08-13T05:48:49.394Z,54.2
2017-08-13T05:49:51.522Z,53.7
2017-08-13T05:50:53.654Z,53.6
2017-08-13T05:51:55.786Z,53.4
2017-08-13T05:52:57.916Z,53.8
2017-08-13T05:54:00.048Z,53.5
2017-08-13T05:55:02.176Z,54.2
2017-08-13T05:56:03.977Z,53.5
2017-08-13T05:57:05.427Z,53.4
2017-08-13T05:58:07.557Z,53.6
2017-08-13T05:59:09.023Z,53.8
2017-08-13T06:00:11.156Z,53.8
2017-08-13T06:01:12.957Z,53.6
2017-08-13T06:02:15.086Z,53.6
2017-08-13T06:03:17.219Z,53.5
2017-08-13T06:04:19.032Z,54
2017-08-13T06:05:21.165Z,53.7
2017-08-13T06:06:22.607Z,53.5
2017-08-13T06:07:23.727Z,53.6
2017-08-13T06:08:25.527Z,53.4
2017-08-13T06:09:27.659Z,53.2
2017-08-13T06:10:29.461Z,53.2
2017-08-13T06:11:30.926Z,53.1
2017-08-13T06:12:32.721Z,53.3
2017-08-13T06:13:34.500Z,53.1
2017-08-13T06:14:36.297Z,53.4
2017-08-13T06:15:38.428Z,53.4
2017-08-13T06:16:39.539Z,53.4
2017-08-13T06:17:41.667Z,53.8
2017-08-13T06:18:43.135Z,53.3
2017-08-13T06:19:44.601Z,53.5
2017-08-13T06:20:46.476Z,53.6
2017-08-13T06:21:48.608Z,53.1
2017-08-13T06:22:50.735Z,53.3
2017-08-13T06:23:52.536Z,53.6
2017-08-13T06:24:54.006Z,53.7
2017-08-13T06:25:56.137Z,53.4
2017-08-13T06:26:57.909Z,53.4
2017-08-13T06:27:59.709Z,53.5
2017-08-13T06:29:01.839Z,53.3
2017-08-13T06:30:03.974Z,53.4
2017-08-13T06:31:06.103Z,53.5
2017-08-13T06:32:08.233Z,53.3
2017-08-13T06:33:10.038Z,53.4
2017-08-13T06:34:11.834Z,53.3
2017-08-13T06:35:13.968Z,53.3
2017-08-13T06:36:16.142Z,53.3
2017-08-13T06:37:17.606Z,53.3
2017-08-13T06:38:19.399Z,53.3
2017-08-13T06:39:21.198Z,53.4
2017-08-13T06:40:23.324Z,53.6
2017-08-13T06:41:25.122Z,53.3
2017-08-13T06:42:26.577Z,53.4
2017-08-13T06:43:28.355Z,53.3
2017-08-13T06:44:30.156Z,53.6
2017-08-13T06:45:31.621Z,53.3
2017-08-13T06:46:33.071Z,53.5
2017-08-13T06:47:35.201Z,53.4
2017-08-13T06:48:36.981Z,53.5
2017-08-13T06:49:38.777Z,53.3
2017-08-13T06:50:40.223Z,53.5
2017-08-13T06:51:42.455Z,53.5
2017-08-13T06:52:44.252Z,53.5
2017-08-13T06:53:46.037Z,53.4
2017-08-13T06:54:48.167Z,53.2
2017-08-13T06:55:49.970Z,53.5
2017-08-13T06:56:52.103Z,53.4
2017-08-13T06:57:54.232Z,53.4
2017-08-13T06:58:56.033Z,53.7
2017-08-13T06:59:57.834Z,53.4
2017-08-13T07:00:59.965Z,53.5
2017-08-13T07:02:01.765Z,53.5
2017-08-13T07:03:03.214Z,53.4
2017-08-13T07:04:05.024Z,53.5
2017-08-13T07:05:06.799Z,53.6
2017-08-13T07:06:08.932Z,53.3
2017-08-13T07:07:10.399Z,53.5
2017-08-13T07:08:12.531Z,53.3
2017-08-13T07:09:14.333Z,53.1
2017-08-13T07:10:15.784Z,53.5
2017-08-13T07:11:17.580Z,53.6
2017-08-13T07:12:19.038Z,53.6
2017-08-13T07:13:21.168Z,53.4
2017-08-13T07:14:22.616Z,53.4
2017-08-13T07:15:24.747Z,53.6
2017-08-13T07:16:26.877Z,53.4
2017-08-13T07:17:28.681Z,53.4
2017-08-13T07:18:30.481Z,53.3
2017-08-13T07:19:32.288Z,53.4
2017-08-13T07:20:34.090Z,53.4
2017-08-13T07:21:35.532Z,53.8
2017-08-13T07:22:37.328Z,53.3
2017-08-13T07:23:39.461Z,53.2
2017-08-13T07:24:40.927Z,53.7
2017-08-13T07:25:42.725Z,53.2
2017-08-13T07:26:44.525Z,53.1
2017-08-13T07:27:46.376Z,53.1
2017-08-13T07:28:48.185Z,53
2017-08-13T07:29:49.984Z,52.9
2017-08-13T07:30:51.763Z,53.2
2017-08-13T07:31:52.893Z,52.9
2017-08-13T07:32:54.697Z,52.9
2017-08-13T07:33:56.480Z,53
2017-08-13T07:34:58.610Z,52.9
2017-08-13T07:36:00.740Z,53.2
2017-08-13T07:37:02.536Z,53
2017-08-13T07:38:04.333Z,53
2017-08-13T07:39:06.132Z,53.2
2017-08-13T07:40:07.934Z,53
2017-08-13T07:41:10.066Z,53
2017-08-13T07:42:11.507Z,53.1
2017-08-13T07:43:13.638Z,53.1
2017-08-13T07:44:15.108Z,52.9
2017-08-13T07:45:17.253Z,52.9
2017-08-13T07:46:19.381Z,52.9
2017-08-13T07:47:21.511Z,53
2017-08-13T07:48:23.310Z,53.6
2017-08-13T07:49:25.112Z,53
2017-08-13T07:50:26.911Z,53.2
2017-08-13T07:51:28.029Z,53.5
2017-08-13T07:52:29.808Z,53.2
2017-08-13T07:53:31.942Z,53.1
2017-08-13T07:54:33.737Z,53
2017-08-13T07:55:35.864Z,53.6
2017-08-13T07:56:37.999Z,53.5
2017-08-13T07:57:40.141Z,52.7
2017-08-13T07:58:42.271Z,52.8
2017-08-13T07:59:44.402Z,52.9
2017-08-13T08:00:46.532Z,52.9
2017-08-13T08:01:48.667Z,52.9
2017-08-13T08:02:50.795Z,53.1
2017-08-13T08:03:52.576Z,53.1
2017-08-13T08:04:54.380Z,53.2
2017-08-13T08:05:56.511Z,52.8
2017-08-13T08:06:58.640Z,53
2017-08-13T08:08:00.423Z,53.1
2017-08-13T08:09:02.226Z,53.2
2017-08-13T08:10:04.026Z,52.8
2017-08-13T08:11:05.824Z,52.8
2017-08-13T08:12:07.621Z,52.9
2017-08-13T08:13:09.089Z,53.2
2017-08-13T08:14:10.547Z,52.7
2017-08-13T08:15:12.678Z,52.7
2017-08-13T08:16:14.478Z,53.1
2017-08-13T08:17:15.924Z,52.9
2017-08-13T08:18:18.060Z,52.9
2017-08-13T08:19:19.838Z,53
2017-08-13T08:20:21.637Z,53.5
2017-08-13T08:21:23.436Z,53.1
2017-08-13T08:22:25.239Z,52.9
2017-08-13T08:23:27.373Z,53.4
2017-08-13T08:24:29.225Z,52.9
2017-08-13T08:25:31.023Z,53.2
2017-08-13T08:26:32.492Z,52.9
2017-08-13T08:27:34.625Z,53.1
2017-08-13T08:28:36.092Z,53
2017-08-13T08:29:37.542Z,52.7
2017-08-13T08:30:39.670Z,52.9
2017-08-13T08:31:41.799Z,53
2017-08-13T08:32:43.278Z,52.8
2017-08-13T08:33:45.395Z,52.7
2017-08-13T08:34:47.528Z,53.2
2017-08-13T08:35:49.661Z,52.8
2017-08-13T08:36:51.131Z,52.8
2017-08-13T08:37:52.926Z,53
2017-08-13T08:38:55.060Z,53.1
2017-08-13T08:39:56.836Z,52.8
2017-08-13T08:40:58.966Z,52.9
2017-08-13T08:42:01.098Z,52.9
2017-08-13T08:43:03.230Z,52.6
2017-08-13T08:44:04.678Z,52.6
2017-08-13T08:45:06.148Z,52.5
2017-08-13T08:46:08.283Z,52.2
2017-08-13T08:47:10.417Z,51.9
2017-08-13T08:48:11.861Z,52
2017-08-13T08:49:13.663Z,52.5
2017-08-13T08:50:15.467Z,52.6
2017-08-13T08:51:16.922Z,52.6
2017-08-13T08:52:18.720Z,52.7
2017-08-13T08:53:20.849Z,52.8
2017-08-13T08:54:22.646Z,53.1
2017-08-13T08:55:24.777Z,53.2
2017-08-13T08:56:26.910Z,52.9
2017-08-13T08:57:28.690Z,52.9
2017-08-13T08:58:30.142Z,52.9
2017-08-13T08:59:31.945Z,52.8
2017-08-13T09:00:33.719Z,53
2017-08-13T09:01:35.851Z,52.7
2017-08-13T09:02:37.298Z,52.7
2017-08-13T09:03:39.433Z,52.8
2017-08-13T09:04:40.905Z,52.9
2017-08-13T09:05:42.680Z,52.8
2017-08-13T09:06:44.146Z,52.7
2017-08-13T09:07:46.273Z,52.4
2017-08-13T09:08:48.405Z,52
2017-08-13T09:09:50.203Z,52.6
2017-08-13T09:10:51.647Z,52.1
2017-08-13T09:11:53.456Z,52.3
2017-08-13T09:12:55.253Z,52.7
2017-08-13T09:13:57.048Z,52.2
2017-08-13T09:14:59.183Z,52.1
2017-08-13T09:16:01.317Z,52.1
2017-08-13T09:17:03.113Z,52.1
2017-08-13T09:18:05.247Z,52.1
2017-08-13T09:19:07.048Z,52.1
2017-08-13T09:20:09.179Z,52.1
2017-08-13T09:21:10.652Z,52.2
2017-08-13T09:22:12.780Z,52.2
2017-08-13T09:23:14.223Z,52.6
2017-08-13T09:24:16.024Z,52.2
2017-08-13T09:25:17.799Z,52.7
2017-08-13T09:26:19.599Z,52.3
2017-08-13T09:27:21.733Z,52.3
2017-08-13T09:28:23.860Z,52
2017-08-13T09:29:25.306Z,52.7
2017-08-13T09:30:27.106Z,52
2017-08-13T09:31:29.235Z,52.1
2017-08-13T09:32:31.016Z,52.5
2017-08-13T09:33:32.821Z,52.2
2017-08-13T09:34:34.619Z,51.8
2017-08-13T09:35:35.726Z,52.3
2017-08-13T09:36:37.525Z,52
2017-08-13T09:37:39.329Z,51.8
2017-08-13T09:38:41.114Z,51.9
2017-08-13T09:39:42.916Z,52.1
2017-08-13T09:40:44.034Z,52.7
2017-08-13T09:41:46.165Z,52.2
2017-08-13T09:42:47.944Z,52.4
2017-08-13T09:43:49.718Z,52.3
2017-08-13T09:44:51.520Z,51.8
2017-08-13T09:45:53.651Z,51.9
2017-08-13T09:46:55.782Z,51.8
2017-08-13T09:47:57.579Z,52
2017-08-13T09:48:59.360Z,51.9
2017-08-13T09:50:00.839Z,51.8
2017-08-13T09:51:02.972Z,51.7
2017-08-13T09:52:05.105Z,51.6
2017-08-13T09:53:07.235Z,51.7
2017-08-13T09:54:09.366Z,51.8
2017-08-13T09:55:11.497Z,52
2017-08-13T09:56:13.292Z,51.8
2017-08-13T09:57:15.098Z,51.6
2017-08-13T09:58:16.901Z,51.7
2017-08-13T09:59:18.372Z,51.9
2017-08-13T10:00:19.836Z,51.7
2017-08-13T10:01:21.635Z,51.6
2017-08-13T10:02:23.434Z,51.6
2017-08-13T10:03:25.564Z,51.8
2017-08-13T10:04:27.361Z,51.6
2017-08-13T10:05:28.822Z,51.6
2017-08-13T10:06:30.624Z,51.6
2017-08-13T10:07:32.752Z,51.7
2017-08-13T10:08:33.884Z,51.9
2017-08-13T10:09:35.658Z,51.6
2017-08-13T10:10:37.101Z,51.5
2017-08-13T10:11:39.234Z,51.7
2017-08-13T10:12:41.008Z,51.6
2017-08-13T10:13:43.142Z,51.6
2017-08-13T10:14:44.940Z,51.6
2017-08-13T10:15:47.069Z,51.6
2017-08-13T10:16:48.536Z,51.6
2017-08-13T10:17:50.334Z,51.6
2017-08-13T10:18:52.173Z,51.3
2017-08-13T10:19:53.694Z,51.6
2017-08-13T10:20:55.824Z,51.3
2017-08-13T10:21:57.622Z,51.6
2017-08-13T10:22:59.089Z,51.4
2017-08-13T10:24:01.223Z,51.3
2017-08-13T10:25:02.671Z,51.7
2017-08-13T10:26:04.473Z,51.3
2017-08-13T10:27:05.923Z,51.2
2017-08-13T10:28:08.053Z,51.6
2017-08-13T10:29:09.835Z,51.6
2017-08-13T10:30:11.968Z,51.2
2017-08-13T10:31:14.101Z,51
2017-08-13T10:32:16.232Z,51.6
2017-08-13T10:33:18.030Z,51.3
2017-08-13T10:34:20.161Z,51.6
2017-08-13T10:35:21.965Z,51.2
2017-08-13T10:36:24.097Z,51
2017-08-13T10:37:26.230Z,51.1
2017-08-13T10:38:28.028Z,51.1
2017-08-13T10:39:29.826Z,51
2017-08-13T10:40:31.629Z,51.1
2017-08-13T10:41:33.759Z,51.1
2017-08-13T10:42:35.559Z,51.1
2017-08-13T10:43:37.358Z,51.2
2017-08-13T10:44:38.803Z,51.4
2017-08-13T10:45:40.272Z,51.1
2017-08-13T10:46:42.409Z,51
2017-08-13T10:47:44.204Z,51.5
2017-08-13T10:48:45.999Z,51.1
2017-08-13T10:49:47.801Z,51.1
2017-08-13T10:50:49.936Z,51.1
2017-08-13T10:51:52.071Z,51.1
2017-08-13T10:52:53.878Z,51.5
2017-08-13T10:53:55.342Z,51.4
2017-08-13T10:54:56.810Z,51.5
2017-08-13T10:55:58.955Z,51.1
2017-08-13T10:57:01.086Z,51
2017-08-13T10:58:02.885Z,51.4
2017-08-13T10:59:04.679Z,51.2
2017-08-13T11:00:06.477Z,50.9
2017-08-13T11:01:07.595Z,51.1
2017-08-13T11:02:09.723Z,51
2017-08-13T11:03:11.504Z,51.1
2017-08-13T11:04:12.948Z,51.4
2017-08-13T11:05:14.727Z,51
2017-08-13T11:06:16.526Z,51
2017-08-13T11:07:18.330Z,51.5
2017-08-13T11:08:19.440Z,51.3
2017-08-13T11:09:21.569Z,51.1
2017-08-13T11:10:23.373Z,51.1
2017-08-13T11:11:25.505Z,50.8
2017-08-13T11:12:27.639Z,50.9
2017-08-13T11:13:29.082Z,50.9
2017-08-13T11:14:30.525Z,51.1
2017-08-13T11:15:32.656Z,50.9
2017-08-13T11:16:34.437Z,51.3
2017-08-13T11:17:36.569Z,50.9
2017-08-13T11:18:38.416Z,50.8
2017-08-13T11:19:40.221Z,50.9
2017-08-13T11:20:42.019Z,50.9
2017-08-13T11:21:43.818Z,51.2
2017-08-13T11:22:45.949Z,51
2017-08-13T11:23:47.728Z,50.9
2017-08-13T11:24:49.524Z,50.8
2017-08-13T11:25:51.300Z,50.7
2017-08-13T11:26:53.101Z,51
2017-08-13T11:27:54.238Z,51.1
2017-08-13T11:28:56.136Z,50.9
2017-08-13T11:29:57.909Z,50.9
2017-08-13T11:31:00.039Z,50.9
2017-08-13T11:32:01.818Z,50.9
2017-08-13T11:33:03.949Z,51
2017-08-13T11:34:05.062Z,51.4
2017-08-13T11:35:06.875Z,51
2017-08-13T11:36:09.003Z,51.5
2017-08-13T11:37:11.137Z,51
2017-08-13T11:38:12.932Z,51.5
2017-08-13T11:39:14.103Z,51
2017-08-13T11:40:16.233Z,51.5
2017-08-13T11:41:18.365Z,50.9
2017-08-13T11:42:20.499Z,51.2
2017-08-13T11:43:21.961Z,51
2017-08-13T11:44:24.093Z,51
2017-08-13T11:45:25.892Z,50.9
2017-08-13T11:46:27.691Z,50.8
2017-08-13T11:47:29.491Z,50.8
2017-08-13T11:48:30.961Z,51.2
2017-08-13T11:49:32.758Z,50.9
2017-08-13T11:50:34.890Z,51.2
2017-08-13T11:51:36.686Z,51.1
2017-08-13T11:52:38.464Z,50.9
2017-08-13T11:53:40.267Z,50.8
2017-08-13T11:54:42.065Z,50.8
2017-08-13T11:55:44.199Z,51
2017-08-13T11:56:46.337Z,51.2
2017-08-13T11:57:48.459Z,50.9
2017-08-13T11:58:50.594Z,51
2017-08-13T11:59:52.442Z,51.6
2017-08-13T12:00:54.567Z,51.6
2017-08-13T12:01:56.698Z,51.3
2017-08-13T12:02:58.485Z,50.9
2017-08-13T12:04:00.366Z,50.8
2017-08-13T12:05:02.495Z,50.9
2017-08-13T12:06:04.631Z,50.9
2017-08-13T12:07:06.430Z,50.9
2017-08-13T12:08:08.560Z,50.7
2017-08-13T12:09:10.337Z,51.2
2017-08-13T12:10:12.481Z,50.9
2017-08-13T12:11:14.610Z,50.9
2017-08-13T12:12:16.756Z,50.6
2017-08-13T12:13:18.555Z,50.4
2017-08-13T12:14:20.335Z,50.9
2017-08-13T12:15:22.470Z,50.7
2017-08-13T12:16:24.618Z,50.9
2017-08-13T12:17:26.419Z,50.9
2017-08-13T12:18:28.217Z,50.7
2017-08-13T12:19:30.020Z,51
2017-08-13T12:20:31.821Z,51.3
2017-08-13T12:21:33.290Z,51.1
2017-08-13T12:22:35.085Z,51.2
2017-08-13T12:23:37.216Z,51
2017-08-13T12:24:39.071Z,50.8
2017-08-13T12:25:40.870Z,50.7
2017-08-13T12:26:42.669Z,50.6
2017-08-13T12:27:44.121Z,50.8
2017-08-13T12:28:45.892Z,50.8
2017-08-13T12:29:48.073Z,50.8
2017-08-13T12:30:50.208Z,50.8
2017-08-13T12:31:51.982Z,50.8
2017-08-13T12:32:53.791Z,50.9
2017-08-13T12:33:55.566Z,50.9
2017-08-13T12:34:57.701Z,50.8
2017-08-13T12:35:59.499Z,50.8
2017-08-13T12:37:01.301Z,50.8
2017-08-13T12:38:03.099Z,50.9
2017-08-13T12:39:04.545Z,50.4
2017-08-13T12:40:06.375Z,51.1
2017-08-13T12:41:07.822Z,50.8
2017-08-13T12:42:09.596Z,50.6
2017-08-13T12:43:11.397Z,51.1
2017-08-13T12:44:13.197Z,50.6
2017-08-13T12:45:14.970Z,50.7
2017-08-13T12:46:16.113Z,50.7
2017-08-13T12:47:18.249Z,50.6
2017-08-13T12:48:19.720Z,50.6
2017-08-13T12:49:21.164Z,50.9
2017-08-13T12:50:22.633Z,51.2
2017-08-13T12:51:24.771Z,51.1
2017-08-13T12:52:26.901Z,51.1
2017-08-13T12:53:29.033Z,51.1
2017-08-13T12:54:30.502Z,50.6
2017-08-13T12:55:32.302Z,50.7
2017-08-13T12:56:34.119Z,50.5
2017-08-13T12:57:35.918Z,51
2017-08-13T12:58:37.722Z,50.4
2017-08-13T12:59:39.516Z,51.1
2017-08-13T13:00:41.315Z,50.8
2017-08-13T13:01:43.092Z,51.1
2017-08-13T13:02:44.889Z,50.6
2017-08-13T13:03:46.696Z,50.4
2017-08-13T13:04:48.486Z,50.3
2017-08-13T13:05:50.339Z,50.6
2017-08-13T13:06:52.140Z,50.4
2017-08-13T13:07:54.274Z,50.5
2017-08-13T13:08:56.055Z,50.5
2017-08-13T13:09:57.854Z,51.1
2017-08-13T13:10:59.983Z,50.8
2017-08-13T13:12:01.760Z,51.1
2017-08-13T13:13:03.542Z,50.7
2017-08-13T13:14:04.681Z,50.6
2017-08-13T13:15:06.814Z,50.5
2017-08-13T13:16:08.588Z,50.6
2017-08-13T13:17:10.395Z,50.4
2017-08-13T13:18:12.167Z,50.5
2017-08-13T13:19:13.279Z,50.6
2017-08-13T13:20:15.409Z,50.5
2017-08-13T13:21:17.542Z,50.5
2017-08-13T13:22:19.356Z,50.4
2017-08-13T13:23:21.122Z,51.1
2017-08-13T13:24:23.255Z,51.1
2017-08-13T13:25:25.384Z,50.8
2017-08-13T13:26:27.185Z,50.5
2017-08-13T13:27:28.988Z,50.7
2017-08-13T13:28:31.121Z,50.5
2017-08-13T13:29:32.925Z,50.8
2017-08-13T13:30:34.389Z,50.8
2017-08-13T13:31:36.525Z,50.3
2017-08-13T13:32:37.976Z,50.8
2017-08-13T13:33:40.105Z,50.7
2017-08-13T13:34:41.907Z,50.6
2017-08-13T13:35:44.037Z,50.8
2017-08-13T13:36:45.835Z,50.5
2017-08-13T13:37:47.282Z,50.4
2017-08-13T13:38:49.410Z,50.6
2017-08-13T13:39:51.542Z,50.4
2017-08-13T13:40:53.674Z,50.7
2017-08-13T13:41:55.806Z,50.5
2017-08-13T13:42:57.604Z,50.2
2017-08-13T13:43:59.070Z,50.6
2017-08-13T13:45:01.213Z,51
2017-08-13T13:46:03.336Z,50.8
2017-08-13T13:47:05.139Z,51
2017-08-13T13:48:06.941Z,50.4
2017-08-13T13:49:08.720Z,50.8
2017-08-13T13:50:10.192Z,50.5
2017-08-13T13:51:11.633Z,50.3
2017-08-13T13:52:13.768Z,50.6